Time;durP1;ratioP1;P1;durP2;ratioP2;P2;SDS_P1;SDS_P2;PMS_P1;PMS_P2;Temp;Humidity;BMP_temperature;BMP_pressure;BME280_temperature;BME280_humidity;BME280_pressure;Samples;Min_cycle;Max_cycle;Signal;HPM_P1;HPM_P2
2022/03/27 00:00:57;;;;;;;24.13;9.00;;;;;;;;;;5074653;28;20409;-75
2022/03/27 00:03:23;;;;;;;18.07;9.17;;;;;;;;;;5057291;28;20432;-75
2022/03/27 00:05:49;;;;;;;15.00;9.27;;;;;;;;;;5074620;28;20413;-75
2022/03/27 00:08:15;;;;;;;17.30;9.13;;;;;;;;;;5074517;28;20448;-75
2022/03/27 00:13:25;;;;;;;13.03;9.43;;;;;;;;;;5074343;28;20912;-75
2022/03/27 00:15:51;;;;;;;18.57;9.23;;;;;;;;;;5074571;28;20501;-75
2022/03/27 00:18:17;;;;;;;13.67;8.60;;;;;;;;;;5074174;28;20505;-75
2022/03/27 00:20:43;;;;;;;12.50;8.77;;;;;;;;;;5074232;28;20426;-75
2022/03/27 00:23:09;;;;;;;21.83;10.63;;;;;;;;;;5074023;28;20416;-75
2022/03/27 00:25:35;;;;;;;18.13;9.97;;;;;;;;;;5073842;28;20418;-75
2022/03/27 00:28:02;;;;;;;17.77;9.60;;;;;;;;;;5055857;28;20437;-75
2022/03/27 00:30:28;;;;;;;11.80;8.57;;;;;;;;;;5073753;28;20476;-75
2022/03/27 00:32:55;;;;;;;15.27;8.57;;;;;;;;;;5074101;28;20778;-75
2022/03/27 00:35:21;;;;;;;12.00;8.93;;;;;;;;;;5073628;28;20952;-75
2022/03/27 00:37:48;;;;;;;18.10;9.20;;;;;;;;;;5073827;28;20433;-75
2022/03/27 00:40:15;;;;;;;14.30;8.73;;;;;;;;;;5073623;28;20487;-75
2022/03/27 00:42:41;;;;;;;14.13;8.00;;;;;;;;;;5073277;28;20421;-75
2022/03/27 00:45:08;;;;;;;11.00;8.90;;;;;;;;;;5073686;28;20508;-75
2022/03/27 00:47:34;;;;;;;15.17;9.60;;;;;;;;;;5073549;28;20905;-75
2022/03/27 00:49:59;;;;;;;17.90;12.20;;;;;;;;;;5073821;28;20405;-75
2022/03/27 00:52:25;;;;;;;13.77;8.60;;;;;;;;;;5073475;28;20782;-75
2022/03/27 00:54:51;;;;;;;19.67;9.33;;;;;;;;;;5073326;28;20440;-75
2022/03/27 00:57:17;;;;;;;15.70;9.60;;;;;;;;;;5073256;28;20464;-75
2022/03/27 00:59:43;;;;;;;18.10;9.50;;;;;;;;;;5073402;28;20478;-74
2022/03/27 01:02:10;;;;;;;16.50;8.43;;;;;;;;;;5073106;28;20456;-75
2022/03/27 01:04:39;;;;;;;14.93;8.40;;;;;;;;;;5073137;28;20410;-75
2022/03/27 01:07:05;;;;;;;31.50;9.30;;;;;;;;;;5073476;28;20474;-75
2022/03/27 01:09:37;;;;;;;13.33;8.63;;;;;;;;;;5073206;28;20418;-75
2022/03/27 01:12:14;;;;;;;12.63;8.30;;;;;;;;;;5073344;28;20447;-75
2022/03/27 01:14:40;;;;;;;13.30;8.77;;;;;;;;;;5073527;28;20492;-75
2022/03/27 01:17:08;;;;;;;13.17;8.80;;;;;;;;;;5073385;28;20987;-75
2022/03/27 01:19:34;;;;;;;9.30;7.20;;;;;;;;;;5073056;28;20421;-74
2022/03/27 01:22:00;;;;;;;10.93;8.00;;;;;;;;;;5073222;28;20425;-75
2022/03/27 01:24:27;;;;;;;24.27;8.93;;;;;;;;;;5073115;28;20475;-75
2022/03/27 01:26:53;;;;;;;15.70;10.07;;;;;;;;;;5073215;28;20516;-75
2022/03/27 01:29:19;;;;;;;21.03;9.77;;;;;;;;;;5073791;28;20423;-75
2022/03/27 01:31:46;;;;;;;13.40;9.10;;;;;;;;;;5072727;28;20567;-75
2022/03/27 01:34:12;;;;;;;16.67;8.00;;;;;;;;;;5072931;28;20893;-75
2022/03/27 01:36:38;;;;;;;19.73;8.47;;;;;;;;;;5073180;28;20531;-75
2022/03/27 01:39:06;;;;;;;9.20;7.83;;;;;;;;;;5054912;28;20418;-75
2022/03/27 01:41:32;;;;;;;16.07;8.43;;;;;;;;;;5072748;28;20421;-75
2022/03/27 01:44:00;;;;;;;16.40;8.73;;;;;;;;;;5073141;28;20418;-75
2022/03/27 01:46:30;;;;;;;10.80;5.43;;;;;;;;;;5072884;28;20921;-75
2022/03/27 01:48:56;;;;;;;15.70;7.80;;;;;;;;;;5072984;28;20421;-75
2022/03/27 01:51:22;;;;;;;21.13;8.30;;;;;;;;;;5071951;28;20418;-75
2022/03/27 01:53:48;;;;;;;13.77;8.60;;;;;;;;;;5074667;28;20182;-75
2022/03/27 01:56:14;;;;;;;16.53;7.37;;;;;;;;;;5077344;28;20919;-75
2022/03/27 01:58:40;;;;;;;15.93;9.60;;;;;;;;;;5076846;28;20409;-75
2022/03/27 02:01:07;;;;;;;7.07;6.33;;;;;;;;;;5076981;28;20555;-75
2022/03/27 02:03:33;;;;;;;10.47;7.73;;;;;;;;;;5077090;28;20768;-75
2022/03/27 02:05:59;;;;;;;19.07;8.63;;;;;;;;;;5076628;28;20983;-75
2022/03/27 02:08:25;;;;;;;18.40;8.70;;;;;;;;;;5077031;28;20501;-75
2022/03/27 02:10:51;;;;;;;21.60;9.27;;;;;;;;;;5076910;28;20443;-75
2022/03/27 02:13:18;;;;;;;25.63;8.00;;;;;;;;;;5076783;28;20406;-75
2022/03/27 02:15:46;;;;;;;10.13;6.63;;;;;;;;;;5076504;28;20505;-75
2022/03/27 02:18:12;;;;;;;17.00;8.03;;;;;;;;;;5076305;28;20904;-75
2022/03/27 02:20:39;;;;;;;13.50;8.67;;;;;;;;;;5076161;28;20410;-75
2022/03/27 02:23:05;;;;;;;11.17;7.77;;;;;;;;;;5076345;28;20452;-75
2022/03/27 02:25:31;;;;;;;16.50;8.13;;;;;;;;;;5076606;28;20872;-75
2022/03/27 02:27:57;;;;;;;27.13;8.70;;;;;;;;;;5076471;28;20413;-75
2022/03/27 02:30:23;;;;;;;17.30;10.60;;;;;;;;;;5075892;28;20979;-75
2022/03/27 02:32:50;;;;;;;16.27;7.57;;;;;;;;;;5074910;28;20766;-75
2022/03/27 02:35:16;;;;;;;22.53;10.27;;;;;;;;;;5056602;28;20418;-75
2022/03/27 02:37:42;;;;;;;21.37;8.40;;;;;;;;;;5075310;28;20431;-75
2022/03/27 02:40:09;;;;;;;16.37;8.60;;;;;;;;;;5075083;28;20417;-75
2022/03/27 02:42:35;;;;;;;12.43;7.60;;;;;;;;;;5074703;28;20421;-75
2022/03/27 02:45:01;;;;;;;15.00;8.60;;;;;;;;;;5075061;28;20763;-75
2022/03/27 02:47:27;;;;;;;13.73;7.50;;;;;;;;;;5074501;28;20413;-75
2022/03/27 02:49:53;;;;;;;14.23;7.60;;;;;;;;;;5074919;28;20846;-75
2022/03/27 02:52:19;;;;;;;15.00;8.63;;;;;;;;;;5074926;28;20496;-75
2022/03/27 02:54:45;;;;;;;20.43;8.90;;;;;;;;;;5074531;28;20916;-75
2022/03/27 02:57:11;;;;;;;9.10;7.90;;;;;;;;;;5074193;28;20499;-75
2022/03/27 02:59:37;;;;;;;13.13;8.10;;;;;;;;;;5074721;28;20426;-75
2022/03/27 03:02:04;;;;;;;11.00;7.43;;;;;;;;;;5074647;28;20422;-75
2022/03/27 03:04:34;;;;;;;22.43;7.97;;;;;;;;;;5073912;28;20401;-75
2022/03/27 03:07:00;;;;;;;13.30;6.87;;;;;;;;;;5074561;28;20421;-75
2022/03/27 03:09:26;;;;;;;18.37;7.80;;;;;;;;;;5074867;28;20413;-75
2022/03/27 03:11:52;;;;;;;15.20;8.17;;;;;;;;;;5074839;28;20418;-75
2022/03/27 03:14:18;;;;;;;11.30;7.97;;;;;;;;;;5074236;28;20406;-75
2022/03/27 03:16:46;;;;;;;17.63;8.40;;;;;;;;;;5073977;28;20469;-75
2022/03/27 03:19:12;;;;;;;15.27;8.73;;;;;;;;;;5074690;28;20449;-75
2022/03/27 03:21:38;;;;;;;15.47;8.73;;;;;;;;;;5074435;28;20474;-75
2022/03/27 03:24:04;;;;;;;20.13;10.53;;;;;;;;;;5074123;28;20425;-75
2022/03/27 03:26:30;;;;;;;14.67;8.57;;;;;;;;;;5073795;28;20439;-75
2022/03/27 03:28:56;;;;;;;21.20;9.97;;;;;;;;;;5074021;28;20909;-75
2022/03/27 03:31:22;;;;;;;15.73;9.57;;;;;;;;;;5037498;28;1066656;-74
2022/03/27 03:33:48;;;;;;;15.57;10.40;;;;;;;;;;5075330;28;20410;-75
2022/03/27 03:36:15;;;;;;;16.40;8.90;;;;;;;;;;5075160;28;20488;-75
2022/03/27 03:38:41;;;;;;;14.77;10.17;;;;;;;;;;5075179;28;20409;-75
2022/03/27 03:41:08;;;;;;;19.00;10.47;;;;;;;;;;5074783;28;20791;-75
2022/03/27 03:43:36;;;;;;;27.23;10.87;;;;;;;;;;5075069;28;20453;-75
2022/03/27 03:46:02;;;;;;;24.30;10.30;;;;;;;;;;5074981;28;20437;-75
2022/03/27 03:48:28;;;;;;;14.80;9.93;;;;;;;;;;5075032;28;20494;-75
2022/03/27 03:50:54;;;;;;;12.63;9.30;;;;;;;;;;5074947;28;20421;-75
2022/03/27 03:53:20;;;;;;;13.73;8.97;;;;;;;;;;5074849;28;20494;-74
2022/03/27 03:55:46;;;;;;;14.60;8.70;;;;;;;;;;5074454;28;20567;-75
2022/03/27 03:58:12;;;;;;;16.30;10.40;;;;;;;;;;5074560;28;20782;-75
2022/03/27 04:00:39;;;;;;;19.13;9.93;;;;;;;;;;5074219;28;20511;-74
2022/03/27 04:03:05;;;;;;;16.07;10.03;;;;;;;;;;5074383;28;20825;-75
2022/03/27 04:05:31;;;;;;;24.10;9.63;;;;;;;;;;5074387;28;20421;-75
2022/03/27 04:07:57;;;;;;;23.73;10.93;;;;;;;;;;5074465;28;20464;-75
2022/03/27 04:10:23;;;;;;;15.37;9.57;;;;;;;;;;5074325;28;20409;-75
2022/03/27 04:12:49;;;;;;;14.00;10.03;;;;;;;;;;5074095;28;20452;-75
2022/03/27 04:15:15;;;;;;;16.07;11.17;;;;;;;;;;5074112;28;20410;-75
2022/03/27 04:17:43;;;;;;;24.97;11.30;;;;;;;;;;5073759;28;20986;-75
2022/03/27 04:20:09;;;;;;;14.40;11.20;;;;;;;;;;5074380;28;20442;-75
2022/03/27 04:22:35;;;;;;;23.73;12.77;;;;;;;;;;5073911;28;20409;-75
2022/03/27 04:25:02;;;;;;;20.23;10.83;;;;;;;;;;5074230;28;20426;-75
2022/03/27 04:27:28;;;;;;;17.80;12.00;;;;;;;;;;5074186;28;20844;-75
2022/03/27 04:29:55;;;;;;;17.77;11.33;;;;;;;;;;5073954;28;20959;-75
2022/03/27 04:32:21;;;;;;;17.10;11.00;;;;;;;;;;5073651;28;20410;-75
2022/03/27 04:34:50;;;;;;;18.00;11.07;;;;;;;;;;5073782;28;20421;-75
2022/03/27 04:37:16;;;;;;;19.57;11.90;;;;;;;;;;5073999;28;20477;-75
2022/03/27 04:39:42;;;;;;;19.03;12.60;;;;;;;;;;5073982;28;20914;-75
2022/03/27 04:42:09;;;;;;;24.30;12.63;;;;;;;;;;5073767;28;20429;-75
2022/03/27 04:44:35;;;;;;;18.50;11.90;;;;;;;;;;5073568;28;20501;-75
2022/03/27 04:47:01;;;;;;;19.57;12.27;;;;;;;;;;5073645;28;20474;-75
2022/03/27 04:49:27;;;;;;;20.90;12.00;;;;;;;;;;5073930;28;20421;-75
2022/03/27 04:51:53;;;;;;;16.33;10.80;;;;;;;;;;5073691;28;20417;-75
2022/03/27 04:54:19;;;;;;;21.60;11.87;;;;;;;;;;5073338;28;20954;-75
2022/03/27 04:56:45;;;;;;;21.90;12.00;;;;;;;;;;5073561;28;20531;-75
2022/03/27 04:59:11;;;;;;;25.67;12.27;;;;;;;;;;5073650;28;20905;-75
2022/03/27 05:01:37;;;;;;;14.77;11.17;;;;;;;;;;5073507;28;20426;-75
2022/03/27 05:04:04;;;;;;;21.20;12.97;;;;;;;;;;5073118;28;20418;-75
2022/03/27 05:06:30;;;;;;;16.50;11.60;;;;;;;;;;5073246;28;20988;-75
2022/03/27 05:08:59;;;;;;;18.80;12.83;;;;;;;;;;5073297;28;20433;-75
2022/03/27 05:11:28;;;;;;;17.43;11.20;;;;;;;;;;5073332;28;20766;-75
2022/03/27 05:13:53;;;;;;;16.60;11.20;;;;;;;;;;5073219;28;20815;-75
2022/03/27 05:16:19;;;;;;;18.40;11.90;;;;;;;;;;5073385;28;20499;-75
2022/03/27 05:18:45;;;;;;;23.10;11.93;;;;;;;;;;5055181;28;20889;-75
2022/03/27 05:21:11;;;;;;;18.77;12.70;;;;;;;;;;5073981;28;20425;-75
2022/03/27 05:23:37;;;;;;;20.43;10.70;;;;;;;;;;5073375;28;20401;-75
2022/03/27 05:26:03;;;;;;;17.83;11.40;;;;;;;;;;5072987;28;20421;-75
2022/03/27 05:28:30;;;;;;;16.13;10.90;;;;;;;;;;5073190;28;20410;-75
2022/03/27 05:30:56;;;;;;;24.33;11.70;;;;;;;;;;5072895;28;20465;-75
2022/03/27 05:33:22;;;;;;;16.87;11.77;;;;;;;;;;5073222;28;20408;-75
2022/03/27 05:35:49;;;;;;;25.23;13.27;;;;;;;;;;5072918;28;20957;-75
2022/03/27 05:38:16;;;;;;;28.70;13.83;;;;;;;;;;5072925;28;20903;-75
2022/03/27 05:40:42;;;;;;;37.80;15.30;;;;;;;;;;5072694;28;20448;-75
2022/03/27 05:43:08;;;;;;;29.40;15.77;;;;;;;;;;5073075;28;20448;-75
2022/03/27 05:45:35;;;;;;;32.30;16.50;;;;;;;;;;5073251;28;20413;-75
2022/03/27 05:48:01;;;;;;;38.20;17.07;;;;;;;;;;5054843;28;20434;-75
2022/03/27 05:50:27;;;;;;;35.37;17.70;;;;;;;;;;5073362;28;20410;-75
2022/03/27 05:52:54;;;;;;;32.80;16.93;;;;;;;;;;5073219;28;20412;-75
2022/03/27 05:55:21;;;;;;;33.87;17.47;;;;;;;;;;5073047;28;20785;-75
2022/03/27 05:57:47;;;;;;;32.40;16.83;;;;;;;;;;5072946;28;20793;-75
2022/03/27 06:00:16;;;;;;;34.83;18.63;;;;;;;;;;5073060;28;20413;-75
2022/03/27 06:02:42;;;;;;;31.57;15.67;;;;;;;;;;5072654;28;20417;-75
2022/03/27 06:05:08;;;;;;;35.50;17.80;;;;;;;;;;5072592;28;20401;-75
2022/03/27 06:07:41;;;;;;;25.80;15.60;;;;;;;;;;5072916;28;20459;-75
2022/03/27 06:10:08;;;;;;;25.33;15.70;;;;;;;;;;5072977;28;20402;-75
2022/03/27 06:12:33;;;;;;;32.03;16.27;;;;;;;;;;5072420;28;20414;-74
2022/03/27 06:14:59;;;;;;;30.70;16.40;;;;;;;;;;5072346;28;20414;-75
2022/03/27 06:17:26;;;;;;;25.03;16.07;;;;;;;;;;5072519;28;21017;-75
2022/03/27 06:19:52;;;;;;;34.77;18.40;;;;;;;;;;5072803;28;20405;-75
2022/03/27 06:22:18;;;;;;;50.20;22.40;;;;;;;;;;5072999;28;20417;-75
2022/03/27 06:24:44;;;;;;;40.00;18.80;;;;;;;;;;5072729;28;20417;-75
2022/03/27 06:27:10;;;;;;;40.83;19.37;;;;;;;;;;5072665;28;20417;-75
2022/03/27 06:29:36;;;;;;;35.37;20.53;;;;;;;;;;5072522;28;20429;-75
2022/03/27 06:32:02;;;;;;;31.43;18.27;;;;;;;;;;5072456;28;20406;-75
2022/03/27 06:34:29;;;;;;;38.70;20.13;;;;;;;;;;5072270;28;20424;-75
2022/03/27 06:36:55;;;;;;;37.60;18.57;;;;;;;;;;5073348;28;20481;-75
2022/03/27 06:39:21;;;;;;;34.83;17.50;;;;;;;;;;5073556;28;20414;-74
2022/03/27 06:41:47;;;;;;;38.73;18.90;;;;;;;;;;5076021;28;20432;-74
2022/03/27 06:44:13;;;;;;;34.17;18.47;;;;;;;;;;5076023;28;20421;-73
2022/03/27 06:46:39;;;;;;;26.10;14.47;;;;;;;;;;5076072;28;20421;-74
2022/03/27 06:49:05;;;;;;;29.20;15.53;;;;;;;;;;5076007;28;20433;-74
2022/03/27 06:51:31;;;;;;;24.40;13.70;;;;;;;;;;5075684;28;20432;-74
2022/03/27 06:53:58;;;;;;;18.87;12.93;;;;;;;;;;5075682;28;20413;-74
2022/03/27 06:56:25;;;;;;;26.17;14.07;;;;;;;;;;5075439;28;20477;-74
2022/03/27 06:58:51;;;;;;;29.50;12.73;;;;;;;;;;5075735;28;20417;-74
2022/03/27 07:04:19;;;;;;;21.87;13.40;;;;;;;;;;5014114;28;20450;-74
2022/03/27 07:06:45;;;;;;;29.37;12.37;;;;;;;;;;5062818;28;20426;-74
2022/03/27 07:09:12;;;;;;;20.67;13.20;;;;;;;;;;5075736;28;20418;-74
2022/03/27 07:11:38;;;;;;;20.10;13.77;;;;;;;;;;5075415;28;20889;-75
2022/03/27 07:14:04;;;;;;;20.97;12.27;;;;;;;;;;5075441;28;20600;-74
2022/03/27 07:16:31;;;;;;;22.07;12.67;;;;;;;;;;5075423;28;20571;-74
2022/03/27 07:18:57;;;;;;;26.13;11.97;;;;;;;;;;5075557;28;20421;-74
2022/03/27 07:21:23;;;;;;;25.87;12.90;;;;;;;;;;5075204;28;20425;-74
2022/03/27 07:23:49;;;;;;;17.83;11.10;;;;;;;;;;5075547;28;20414;-74
2022/03/27 07:26:17;;;;;;;16.90;11.30;;;;;;;;;;5075288;28;20908;-74
2022/03/27 07:28:43;;;;;;;15.87;10.13;;;;;;;;;;5074979;28;20436;-74
2022/03/27 07:31:11;;;;;;;22.53;11.97;;;;;;;;;;5075067;28;20461;-74
2022/03/27 07:33:37;;;;;;;24.33;11.67;;;;;;;;;;5074820;28;20410;-74
2022/03/27 07:36:05;;;;;;;21.40;11.40;;;;;;;;;;5074737;28;20510;-74
2022/03/27 07:38:31;;;;;;;20.37;9.93;;;;;;;;;;5075308;28;20417;-74
2022/03/27 07:40:59;;;;;;;21.90;10.40;;;;;;;;;;5074614;28;20833;-74
2022/03/27 07:43:25;;;;;;;21.03;11.53;;;;;;;;;;5074984;28;20414;-74
2022/03/27 07:45:51;;;;;;;25.17;12.00;;;;;;;;;;5074815;28;20422;-74
2022/03/27 07:48:17;;;;;;;18.23;11.10;;;;;;;;;;5074936;28;20927;-75
2022/03/27 07:50:44;;;;;;;21.93;10.90;;;;;;;;;;5073341;28;20409;-74
2022/03/27 07:53:10;;;;;;;20.93;11.60;;;;;;;;;;5074962;28;20445;-73
2022/03/27 07:55:39;;;;;;;26.03;11.10;;;;;;;;;;5074526;28;20461;-74
2022/03/27 07:58:05;;;;;;;27.10;11.87;;;;;;;;;;5074584;28;20417;-74
2022/03/27 08:00:31;;;;;;;21.17;10.97;;;;;;;;;;5074691;28;20500;-75
2022/03/27 08:02:58;;;;;;;20.57;11.57;;;;;;;;;;5074205;28;20417;-74
2022/03/27 08:05:24;;;;;;;18.30;10.70;;;;;;;;;;5074493;28;20418;-74
2022/03/27 08:07:51;;;;;;;19.77;10.30;;;;;;;;;;5074407;28;20425;-74
2022/03/27 08:10:17;;;;;;;23.90;11.70;;;;;;;;;;5074558;28;20804;-71
2022/03/27 08:12:43;;;;;;;25.08;12.45;;;;;;;;;;5073989;28;20403;-71
2022/03/27 08:15:09;;;;;;;24.87;12.27;;;;;;;;;;5074242;28;20254;-74
2022/03/27 08:17:36;;;;;;;25.27;11.07;;;;;;;;;;5073994;28;20469;-74
2022/03/27 08:20:03;;;;;;;20.67;11.57;;;;;;;;;;5074176;28;20406;-74
2022/03/27 08:22:29;;;;;;;26.03;12.20;;;;;;;;;;5074281;28;20416;-73
2022/03/27 08:24:54;;;;;;;26.10;12.10;;;;;;;;;;5073988;28;20410;-73
2022/03/27 08:27:20;;;;;;;21.47;11.83;;;;;;;;;;5073594;28;20509;-74
2022/03/27 08:29:47;;;;;;;24.00;12.43;;;;;;;;;;5073938;28;20414;-73
2022/03/27 08:32:14;;;;;;;20.70;12.27;;;;;;;;;;5056061;28;20463;-74
2022/03/27 08:34:41;;;;;;;20.00;12.77;;;;;;;;;;5073769;28;20904;-73
2022/03/27 08:37:08;;;;;;;26.33;13.30;;;;;;;;;;5073678;28;20539;-73
2022/03/27 08:39:34;;;;;;;26.50;13.20;;;;;;;;;;5073764;28;20563;-73
2022/03/27 08:42:00;;;;;;;22.60;11.30;;;;;;;;;;5073880;28;20957;-72
2022/03/27 08:44:29;;;;;;;24.60;11.23;;;;;;;;;;5073866;28;20471;-74
2022/03/27 08:46:56;;;;;;;16.33;12.07;;;;;;;;;;5073844;28;20418;-73
2022/03/27 08:49:25;;;;;;;25.03;12.83;;;;;;;;;;5073727;28;20417;-73
2022/03/27 08:52:05;;;;;;;22.90;13.63;;;;;;;;;;5073504;28;20907;-73
2022/03/27 08:54:43;;;;;;;25.90;12.67;;;;;;;;;;5073718;28;20447;-73
2022/03/27 08:57:30;;;;;;;19.50;12.53;;;;;;;;;;5073435;28;20472;-73
2022/03/27 08:59:57;;;;;;;16.20;10.67;;;;;;;;;;5073584;28;20409;-72
2022/03/27 09:02:24;;;;;;;24.13;12.10;;;;;;;;;;5055057;28;20429;-73
2022/03/27 09:04:57;;;;;;;25.80;13.43;;;;;;;;;;5073231;28;20410;-73
2022/03/27 09:07:26;;;;;;;19.50;11.17;;;;;;;;;;5073228;28;20823;-73
2022/03/27 09:09:53;;;;;;;17.03;10.70;;;;;;;;;;5073196;28;20413;-77
2022/03/27 09:12:19;;;;;;;22.93;11.40;;;;;;;;;;5072937;28;20429;-76
2022/03/27 09:14:45;;;;;;;18.97;11.30;;;;;;;;;;5073229;28;20442;-73
2022/03/27 09:17:12;;;;;;;23.57;12.13;;;;;;;;;;5073202;28;20473;-73
2022/03/27 09:19:43;;;;;;;25.70;12.57;;;;;;;;;;5073371;28;20508;-73
2022/03/27 09:22:17;;;;;;;32.13;12.00;;;;;;;;;;5073211;28;20417;-70
2022/03/27 09:24:47;;;;;;;25.80;12.93;;;;;;;;;;5073243;28;20414;-73
2022/03/27 09:27:13;;;;;;;24.30;11.67;;;;;;;;;;5073040;28;20426;-73
2022/03/27 09:29:59;;;;;;;18.57;12.13;;;;;;;;;;5072994;28;20417;-73
2022/03/27 09:32:32;;;;;;;16.90;11.07;;;;;;;;;;5073047;28;20418;-73
2022/03/27 09:35:05;;;;;;;18.23;10.83;;;;;;;;;;5073172;28;20410;-74
2022/03/27 09:37:33;;;;;;;38.83;12.57;;;;;;;;;;5072668;28;20484;-73
2022/03/27 09:39:59;;;;;;;23.70;12.30;;;;;;;;;;5073066;28;20567;-73
2022/03/27 09:42:25;;;;;;;20.17;13.00;;;;;;;;;;5072948;28;20460;-73
2022/03/27 09:45:09;;;;;;;20.83;12.30;;;;;;;;;;5073005;28;20424;-73
2022/03/27 09:47:34;;;;;;;30.43;12.57;;;;;;;;;;5054793;28;20781;-74
2022/03/27 09:50:01;;;;;;;27.70;13.57;;;;;;;;;;5072715;28;20416;-73
2022/03/27 09:52:27;;;;;;;22.17;11.03;;;;;;;;;;5072630;28;20991;-71
2022/03/27 09:54:56;;;;;;;23.43;11.37;;;;;;;;;;5072763;28;20504;-71
2022/03/27 09:57:25;;;;;;;18.80;11.50;;;;;;;;;;5072633;28;20476;-71
2022/03/27 09:59:51;;;;;;;25.33;12.37;;;;;;;;;;5072868;28;20417;-71
2022/03/27 10:02:17;;;;;;;20.97;11.07;;;;;;;;;;5072781;28;20436;-71
2022/03/27 10:05:00;;;;;;;18.80;11.23;;;;;;;;;;5072770;28;20765;-71
2022/03/27 10:07:27;;;;;;;18.23;11.33;;;;;;;;;;5072297;28;20594;-71
2022/03/27 10:09:53;;;;;;;25.80;12.23;;;;;;;;;;5072666;28;20508;-71
2022/03/27 10:12:23;;;;;;;21.33;11.33;;;;;;;;;;5072259;28;20422;-71
2022/03/27 10:14:49;;;;;;;27.40;11.70;;;;;;;;;;5074690;28;20413;-71
2022/03/27 10:17:16;;;;;;;20.60;12.90;;;;;;;;;;5076888;28;20472;-71
2022/03/27 10:19:47;;;;;;;25.63;11.93;;;;;;;;;;5076645;28;20417;-75
2022/03/27 10:22:20;;;;;;;21.10;11.53;;;;;;;;;;5076249;28;20425;-70
2022/03/27 10:24:46;;;;;;;17.50;10.23;;;;;;;;;;5076457;28;20874;-71
2022/03/27 10:27:14;;;;;;;24.50;14.03;;;;;;;;;;5076260;28;20464;-71
2022/03/27 10:29:40;;;;;;;20.13;12.93;;;;;;;;;;5076316;28;20425;-71
2022/03/27 10:32:09;;;;;;;23.70;15.70;;;;;;;;;;5076460;28;20802;-71
2022/03/27 10:34:37;;;;;;;27.57;13.60;;;;;;;;;;5076230;28;20413;-71
2022/03/27 10:37:08;;;;;;;22.43;12.40;;;;;;;;;;5075779;28;20477;-71
2022/03/27 10:39:42;;;;;;;23.80;12.83;;;;;;;;;;5075892;28;20901;-75
2022/03/27 10:42:18;;;;;;;22.93;11.70;;;;;;;;;;5076177;28;20550;-73
2022/03/27 10:44:44;;;;;;;22.93;11.10;;;;;;;;;;5076179;28;20470;-74
2022/03/27 10:47:21;;;;;;;22.97;12.27;;;;;;;;;;5076212;28;20417;-74
2022/03/27 10:50:02;;;;;;;24.10;11.90;;;;;;;;;;5076043;28;20458;-73
2022/03/27 10:52:28;;;;;;;17.87;11.37;;;;;;;;;;5076066;28;20750;-74
2022/03/27 10:55:01;;;;;;;30.60;13.10;;;;;;;;;;5075731;28;20922;-73
2022/03/27 10:57:30;;;;;;;18.70;11.67;;;;;;;;;;5076512;28;20465;-73
2022/03/27 10:59:56;;;;;;;23.00;12.97;;;;;;;;;;5057953;28;20421;-74
2022/03/27 11:02:42;;;;;;;23.90;10.90;;;;;;;;;;5075927;28;20570;-71
2022/03/27 11:05:08;;;;;;;28.30;12.30;;;;;;;;;;5075700;28;20420;-71
2022/03/27 11:07:34;;;;;;;22.43;12.23;;;;;;;;;;5075566;28;20421;-71
2022/03/27 11:10:00;;;;;;;17.73;10.60;;;;;;;;;;5075567;28;20417;-71
2022/03/27 11:12:26;;;;;;;22.57;12.53;;;;;;;;;;5075685;28;20829;-71
2022/03/27 11:15:02;;;;;;;24.00;12.43;;;;;;;;;;5075865;28;20479;-71
2022/03/27 11:17:39;;;;;;;15.27;10.77;;;;;;;;;;5057366;28;20476;-71
2022/03/27 11:20:07;;;;;;;19.10;12.10;;;;;;;;;;5075649;28;20413;-71
2022/03/27 11:22:53;;;;;;;37.73;11.47;;;;;;;;;;5075594;28;20422;-71
2022/03/27 11:25:25;;;;;;;20.43;9.87;;;;;;;;;;5075338;28;20400;-71
2022/03/27 11:27:57;;;;;;;20.97;12.03;;;;;;;;;;5075814;28;20409;-71
2022/03/27 11:30:23;;;;;;;26.50;11.67;;;;;;;;;;5075038;28;20457;-71
2022/03/27 11:33:08;;;;;;;24.33;12.70;;;;;;;;;;5074667;28;20405;-71
2022/03/27 11:35:34;;;;;;;21.83;11.47;;;;;;;;;;5075198;28;20405;-71
2022/03/27 11:38:18;;;;;;;29.03;11.47;;;;;;;;;;5075552;28;20425;-71
2022/03/27 11:40:44;;;;;;;17.10;11.23;;;;;;;;;;5075186;28;20413;-71
2022/03/27 11:43:29;;;;;;;20.10;11.57;;;;;;;;;;5075137;28;20918;-71
2022/03/27 11:45:56;;;;;;;14.10;7.27;;;;;;;;;;5075037;28;20406;-72
2022/03/27 11:48:23;;;;;;;15.97;10.60;;;;;;;;;;5074907;28;20896;-72
2022/03/27 11:50:49;;;;;;;21.03;11.10;;;;;;;;;;5056844;28;20453;-71
2022/03/27 11:53:16;;;;;;;14.00;8.23;;;;;;;;;;5074648;28;20928;-71
2022/03/27 11:55:42;;;;;;;19.03;10.90;;;;;;;;;;5074471;28;20791;-72
2022/03/27 11:58:10;;;;;;;14.93;9.20;;;;;;;;;;5074735;28;20513;-73
2022/03/27 12:00:44;;;;;;;19.77;10.97;;;;;;;;;;5074770;28;20418;-72
2022/03/27 12:03:23;;;;;;;12.73;9.47;;;;;;;;;;5074333;28;20837;-72
2022/03/27 12:05:50;;;;;;;16.40;8.30;;;;;;;;;;5074858;28;20448;-72
2022/03/27 12:08:19;;;;;;;13.83;9.10;;;;;;;;;;5074674;28;20913;-72
2022/03/27 12:10:54;;;;;;;19.00;9.60;;;;;;;;;;5074190;28;20500;-72
2022/03/27 12:13:20;;;;;;;23.50;11.63;;;;;;;;;;5075084;28;20413;-72
2022/03/27 12:15:49;;;;;;;16.53;9.30;;;;;;;;;;5074298;28;20553;-72
2022/03/27 12:18:26;;;;;;;17.90;8.80;;;;;;;;;;5074256;28;20425;-72
2022/03/27 12:20:52;;;;;;;18.20;10.10;;;;;;;;;;5074476;28;20401;-72
2022/03/27 12:23:32;;;;;;;16.07;8.30;;;;;;;;;;5056245;28;20922;-72
2022/03/27 12:32:06;;;;;;;14.47;8.97;;;;;;;;;;5074196;28;20421;-73
2022/03/27 12:34:33;;;;;;;14.17;9.43;;;;;;;;;;5074143;28;20437;-73
2022/03/27 12:37:09;;;;;;;14.30;9.87;;;;;;;;;;5073174;28;20515;-73
2022/03/27 12:39:58;;;;;;;29.00;8.17;;;;;;;;;;5073936;28;20401;-73
2022/03/27 12:42:36;;;;;;;15.37;9.10;;;;;;;;;;5061307;28;20448;-66
2022/03/27 12:45:22;;;;;;;16.40;9.90;;;;;;;;;;5074013;28;20398;-73
2022/03/27 12:47:57;;;;;;;15.63;8.83;;;;;;;;;;5073867;28;20444;-73
2022/03/27 12:50:26;;;;;;;20.73;9.00;;;;;;;;;;5073784;28;20466;-73
2022/03/27 12:52:53;;;;;;;12.07;7.83;;;;;;;;;;5073569;28;20988;-73
2022/03/27 12:55:19;;;;;;;12.57;8.57;;;;;;;;;;5073505;28;20497;-73
2022/03/27 12:57:49;;;;;;;19.63;9.30;;;;;;;;;;5073480;28;20526;-73
2022/03/27 13:00:16;;;;;;;22.00;9.93;;;;;;;;;;5073707;28;20429;-73
2022/03/27 13:02:42;;;;;;;17.77;8.63;;;;;;;;;;5073450;28;20428;-73
2022/03/27 13:05:08;;;;;;;17.30;8.77;;;;;;;;;;5073653;28;20409;-73
2022/03/27 13:07:52;;;;;;;18.10;7.83;;;;;;;;;;5073308;28;20480;-73
2022/03/27 13:10:19;;;;;;;14.50;8.20;;;;;;;;;;5073227;28;20920;-73
2022/03/27 13:12:45;;;;;;;7.40;6.63;;;;;;;;;;5073318;28;20954;-73
2022/03/27 13:15:11;;;;;;;12.37;7.67;;;;;;;;;;5073536;28;20421;-73
2022/03/27 13:17:37;;;;;;;15.37;8.60;;;;;;;;;;5073154;28;20981;-73
2022/03/27 13:20:04;;;;;;;14.23;9.00;;;;;;;;;;5073553;28;20412;-73
2022/03/27 13:22:30;;;;;;;10.63;7.00;;;;;;;;;;5073159;28;20421;-73
2022/03/27 13:24:56;;;;;;;12.30;7.67;;;;;;;;;;5073366;28;20948;-73
2022/03/27 13:27:22;;;;;;;19.67;8.03;;;;;;;;;;5073062;28;20500;-73
2022/03/27 13:29:48;;;;;;;12.47;8.73;;;;;;;;;;5073512;28;20424;-73
2022/03/27 13:32:14;;;;;;;11.80;8.83;;;;;;;;;;5073560;28;20406;-73
2022/03/27 13:34:40;;;;;;;6.60;5.87;;;;;;;;;;5073250;28;20449;-73
2022/03/27 13:37:06;;;;;;;22.10;7.70;;;;;;;;;;5072810;28;20500;-73
2022/03/27 13:39:32;;;;;;;18.73;8.20;;;;;;;;;;5073012;28;20555;-73
2022/03/27 13:44:42;;;;;;;15.13;7.67;;;;;;;;;;5073205;28;20390;-72
2022/03/27 13:47:09;;;;;;;9.63;7.10;;;;;;;;;;5072971;28;20428;-73
2022/03/27 13:49:35;;;;;;;14.43;7.77;;;;;;;;;;5076673;28;20417;-73
2022/03/27 13:52:02;;;;;;;19.03;8.50;;;;;;;;;;5077210;28;20413;-74
2022/03/27 13:54:28;;;;;;;8.63;6.97;;;;;;;;;;5076907;28;20413;-73
2022/03/27 13:56:54;;;;;;;9.17;6.97;;;;;;;;;;5076966;28;20465;-73
2022/03/27 13:59:20;;;;;;;8.70;7.50;;;;;;;;;;5077026;28;20413;-74
2022/03/27 14:01:47;;;;;;;14.40;6.20;;;;;;;;;;5058995;28;20519;-73
2022/03/27 14:04:14;;;;;;;12.00;7.60;;;;;;;;;;5077056;28;20414;-73
2022/03/27 14:06:42;;;;;;;12.77;7.33;;;;;;;;;;5077065;28;20508;-73
2022/03/27 14:09:08;;;;;;;17.30;8.10;;;;;;;;;;5076756;28;20417;-73
2022/03/27 14:11:34;;;;;;;14.23;8.10;;;;;;;;;;5076839;28;20422;-73
2022/03/27 14:14:00;;;;;;;16.73;7.60;;;;;;;;;;5077229;28;20414;-73
2022/03/27 14:16:28;;;;;;;13.20;8.20;;;;;;;;;;5076847;28;20457;-73
2022/03/27 14:18:54;;;;;;;15.33;8.77;;;;;;;;;;5076777;28;20470;-74
2022/03/27 14:21:21;;;;;;;13.90;7.33;;;;;;;;;;5058328;28;20417;-74
2022/03/27 14:23:47;;;;;;;11.27;7.80;;;;;;;;;;5076474;28;20519;-74
2022/03/27 14:26:13;;;;;;;9.60;7.53;;;;;;;;;;5076175;28;20425;-75
2022/03/27 14:28:39;;;;;;;11.80;7.50;;;;;;;;;;5076338;28;20435;-74
2022/03/27 14:31:05;;;;;;;14.57;8.70;;;;;;;;;;5075977;28;20980;-74
2022/03/27 14:33:31;;;;;;;9.70;7.00;;;;;;;;;;5076656;28;20444;-74
2022/03/27 14:35:57;;;;;;;17.70;9.10;;;;;;;;;;5075954;28;20463;-74
2022/03/27 14:38:24;;;;;;;17.93;7.80;;;;;;;;;;5076259;28;20479;-74
2022/03/27 14:40:50;;;;;;;9.40;7.30;;;;;;;;;;5076042;28;20504;-74